createdAt,value
2022-12-18T00:01:54.273Z,-2.13
2022-12-18T00:04:25.722Z,-2.08
2022-12-18T00:06:55.231Z,-2.05
2022-12-18T00:09:24.838Z,-2.01
2022-12-18T00:11:54.536Z,-2.06
2022-12-18T00:14:26.589Z,-2.12
2022-12-18T00:16:56.044Z,-2.11
2022-12-18T00:19:25.560Z,-2.07
2022-12-18T00:21:54.995Z,-2.00
2022-12-18T00:24:25.018Z,-2.02
2022-12-18T00:26:54.462Z,-2.01
2022-12-18T00:29:26.509Z,-2.07
2022-12-18T00:31:55.996Z,-2.06
2022-12-18T00:34:25.504Z,-2.09
2022-12-18T00:36:54.955Z,-2.02
2022-12-18T00:39:24.434Z,-1.99
2022-12-18T00:42:06.326Z,-2.04
2022-12-18T00:44:38.371Z,-2.09
2022-12-18T00:47:08.030Z,-2.10
2022-12-18T00:49:37.471Z,-2.08
2022-12-18T00:52:06.904Z,-2.06
2022-12-18T00:54:36.361Z,-2.09
2022-12-18T00:57:05.781Z,-2.08
2022-12-18T00:59:37.808Z,-2.13
2022-12-18T01:02:07.393Z,-2.16
2022-12-18T01:04:36.974Z,-2.18
2022-12-18T01:07:06.402Z,-2.21
2022-12-18T01:09:35.844Z,-2.26
2022-12-18T01:12:05.274Z,-2.28
2022-12-18T01:14:34.744Z,-2.20
2022-12-18T01:17:06.738Z,-2.20
2022-12-18T01:19:36.283Z,-2.27
2022-12-18T01:22:05.706Z,-2.21
2022-12-18T01:24:35.140Z,-2.21
2022-12-18T01:27:04.543Z,-2.27
2022-12-18T01:29:34.042Z,-2.34
2022-12-18T01:32:06.150Z,-2.53
2022-12-18T01:34:35.641Z,-2.47
2022-12-18T01:37:06.158Z,-2.44
2022-12-18T01:39:35.787Z,-2.38
2022-12-18T01:42:06.343Z,-2.39
2022-12-18T01:45:23.192Z,-2.46
2022-12-18T01:47:56.466Z,-2.37
2022-12-18T01:50:27.407Z,-2.43
2022-12-18T01:52:56.976Z,-2.35
2022-12-18T01:55:27.646Z,-2.48
2022-12-18T01:57:58.880Z,-2.72
2022-12-18T02:00:28.392Z,-2.72
2022-12-18T02:03:00.483Z,-3.32
2022-12-18T02:05:42.864Z,-3.14
2022-12-18T02:08:14.147Z,-3.01
2022-12-18T02:10:48.129Z,-3.24
2022-12-18T02:13:22.946Z,-2.93
2022-12-18T02:15:57.175Z,-2.77
2022-12-18T02:18:31.270Z,-2.64
2022-12-18T02:21:03.368Z,-2.59
2022-12-18T02:23:43.422Z,-2.54
2022-12-18T02:26:19.390Z,-2.52
2022-12-18T02:28:50.019Z,-2.51
2022-12-18T02:31:25.216Z,-2.55
2022-12-18T02:33:55.280Z,-2.54
2022-12-18T02:36:24.719Z,-2.48
2022-12-18T02:38:54.170Z,-2.46
2022-12-18T02:41:27.662Z,-2.43
2022-12-18T02:43:59.088Z,-2.42
2022-12-18T02:46:33.944Z,-2.42
2022-12-18T02:49:08.692Z,-2.43
2022-12-18T02:51:42.307Z,-2.41
2022-12-18T02:54:13.842Z,-2.37
2022-12-18T02:56:47.682Z,-2.32
2022-12-18T02:59:17.674Z,-2.33
2022-12-18T03:01:49.790Z,-2.35
2022-12-18T03:04:22.319Z,-2.36
2022-12-18T03:06:53.539Z,-2.31
2022-12-18T03:09:25.133Z,-2.32
2022-12-18T03:12:19.694Z,-2.32
2022-12-18T03:14:49.120Z,-2.39
2022-12-18T03:17:19.520Z,-2.87
2022-12-18T03:19:49.135Z,-2.70
2022-12-18T03:22:18.538Z,-2.56
2022-12-18T03:24:48.436Z,-2.48
2022-12-18T03:27:22.528Z,-2.45
2022-12-18T03:29:52.842Z,-2.44
2022-12-18T03:32:24.476Z,-2.46
2022-12-18T03:34:54.012Z,-2.51
2022-12-18T03:37:23.519Z,-2.47
2022-12-18T03:39:52.963Z,-2.44
2022-12-18T03:42:26.974Z,-2.45
2022-12-18T03:44:58.912Z,-2.49
2022-12-18T03:47:30.122Z,-2.49
2022-12-18T03:50:01.563Z,-2.50
2022-12-18T03:52:32.036Z,-2.54
2022-12-18T03:55:01.758Z,-2.50
2022-12-18T03:57:34.105Z,-2.47
2022-12-18T04:00:04.333Z,-2.45
2022-12-18T04:02:33.900Z,-2.45
2022-12-18T04:05:05.269Z,-2.47
2022-12-18T04:07:34.715Z,-2.46
2022-12-18T04:10:05.506Z,-2.45
2022-12-18T04:12:37.514Z,-2.48
2022-12-18T04:15:07.859Z,-2.53
2022-12-18T04:17:37.540Z,-2.49
2022-12-18T04:20:07.938Z,-2.51
2022-12-18T04:22:37.392Z,-2.55
2022-12-18T04:25:07.832Z,-2.57
2022-12-18T04:27:39.849Z,-2.55
2022-12-18T04:30:10.668Z,-2.89
2022-12-18T04:32:39.912Z,-2.95
2022-12-18T04:35:11.585Z,-2.81
2022-12-18T04:37:41.042Z,-2.66
2022-12-18T04:40:11.615Z,-2.57
2022-12-18T04:42:43.917Z,-3.08
2022-12-18T04:45:13.916Z,-3.11
2022-12-18T04:47:43.332Z,-3.46
2022-12-18T04:50:12.919Z,-3.38
2022-12-18T04:52:42.341Z,-3.65
2022-12-18T04:55:12.071Z,-3.76
2022-12-18T04:57:44.080Z,-3.69
2022-12-18T05:00:14.783Z,-3.97
2022-12-18T05:02:44.345Z,-3.69
2022-12-18T05:05:14.154Z,-3.37
2022-12-18T05:07:43.852Z,-3.15
2022-12-18T05:10:13.308Z,-2.96
2022-12-18T05:12:57.619Z,-2.82
2022-12-18T05:15:27.389Z,-2.78
2022-12-18T05:17:58.014Z,-2.79
2022-12-18T05:20:28.039Z,-2.87
2022-12-18T05:22:57.890Z,-2.78
2022-12-18T05:25:27.489Z,-3.28
2022-12-18T05:27:59.543Z,-3.29
2022-12-18T05:30:29.724Z,-3.51
2022-12-18T05:32:59.183Z,-3.65
2022-12-18T05:35:28.590Z,-4.26
2022-12-18T05:37:58.326Z,-4.59
2022-12-18T05:40:27.750Z,-4.55
2022-12-18T05:43:00.473Z,-4.74
2022-12-18T05:45:30.610Z,-4.79
2022-12-18T05:48:00.062Z,-4.88
2022-12-18T05:50:29.519Z,-4.82
2022-12-18T05:52:58.955Z,-4.86
2022-12-18T05:55:28.395Z,-4.73
2022-12-18T05:58:00.430Z,-4.77
2022-12-18T06:00:30.045Z,-4.39
2022-12-18T06:03:00.174Z,-4.07
2022-12-18T06:05:29.871Z,-4.15
2022-12-18T06:07:59.492Z,-3.83
2022-12-18T06:10:29.099Z,-4.17
2022-12-18T06:13:01.295Z,-4.16
2022-12-18T06:15:30.904Z,-4.18
2022-12-18T06:18:00.562Z,-4.26
2022-12-18T06:20:33.414Z,-4.27
2022-12-18T06:23:03.447Z,-4.09
2022-12-18T06:25:32.924Z,-4.32
2022-12-18T06:28:05.037Z,-4.00
2022-12-18T06:30:34.678Z,-4.64
2022-12-18T06:33:04.120Z,-4.74
2022-12-18T06:35:33.560Z,-4.57
2022-12-18T06:38:04.627Z,-5.10
2022-12-18T06:40:34.084Z,-4.68
2022-12-18T06:43:06.097Z,-5.06
2022-12-18T06:45:35.578Z,-4.86
2022-12-18T06:48:05.100Z,-4.57
2022-12-18T06:50:34.611Z,-5.17
2022-12-18T06:53:04.173Z,-5.48
2022-12-18T06:55:33.794Z,-5.31
2022-12-18T06:58:05.820Z,-5.43
2022-12-18T07:00:35.295Z,-5.19
2022-12-18T07:03:04.821Z,-5.10
2022-12-18T07:05:34.284Z,-5.46
2022-12-18T07:08:03.746Z,-5.76
2022-12-18T07:10:33.269Z,-5.75
2022-12-18T07:13:02.728Z,-5.65
2022-12-18T07:15:34.775Z,-5.69
2022-12-18T07:18:04.660Z,-5.61
2022-12-18T07:20:34.094Z,-5.75
2022-12-18T07:23:06.156Z,-5.34
2022-12-18T07:25:37.963Z,-5.01
2022-12-18T07:28:08.874Z,-4.81
2022-12-18T07:30:43.756Z,-4.68
2022-12-18T07:33:13.176Z,-4.74
2022-12-18T07:35:43.427Z,-4.44
2022-12-18T07:38:12.854Z,-4.29
2022-12-18T07:40:42.281Z,-4.13
2022-12-18T07:43:11.710Z,-3.88
2022-12-18T07:45:43.740Z,-3.73
2022-12-18T07:48:13.331Z,-3.63
2022-12-18T07:50:42.751Z,-3.67
2022-12-18T07:53:12.212Z,-3.66
2022-12-18T07:56:05.539Z,-3.62
2022-12-18T07:58:32.027Z,-3.70
2022-12-18T08:01:09.036Z,-4.28
2022-12-18T08:03:38.926Z,-4.43
2022-12-18T08:06:10.420Z,-4.14
2022-12-18T08:08:41.892Z,-3.95
2022-12-18T08:11:11.403Z,-3.72
2022-12-18T08:13:41.211Z,-3.92
2022-12-18T08:16:13.763Z,-3.54
2022-12-18T08:18:43.238Z,-3.37
2022-12-18T08:21:13.082Z,-3.31
2022-12-18T08:23:43.644Z,-3.48
2022-12-18T08:26:13.119Z,-3.27
2022-12-18T08:28:42.592Z,-3.16
2022-12-18T08:31:15.033Z,-3.16
2022-12-18T08:33:44.835Z,-3.21
2022-12-18T08:36:14.431Z,-3.22
2022-12-18T08:38:43.872Z,-3.17
2022-12-18T08:41:14.631Z,-3.13
2022-12-18T08:43:56.648Z,-3.07
2022-12-18T08:46:29.253Z,-3.08
2022-12-18T08:48:59.066Z,-3.06
2022-12-18T08:51:28.504Z,-3.07
2022-12-18T08:53:57.945Z,-3.07
2022-12-18T08:56:27.375Z,-2.89
2022-12-18T08:58:56.930Z,-2.70
2022-12-18T09:01:29.413Z,-2.55
2022-12-18T09:03:59.004Z,-2.70
2022-12-18T09:06:28.487Z,-2.82
2022-12-18T09:08:57.924Z,-2.77
2022-12-18T09:11:28.542Z,-2.96
2022-12-18T09:13:58.097Z,-3.35
2022-12-18T09:16:32.610Z,-3.94
2022-12-18T09:19:02.924Z,-3.91
2022-12-18T09:21:36.064Z,-3.63
2022-12-18T09:24:09.093Z,-3.29
2022-12-18T09:26:38.693Z,-3.19
2022-12-18T09:29:10.234Z,-3.39
2022-12-18T09:31:42.264Z,-3.90
2022-12-18T09:34:11.716Z,-3.50
2022-12-18T09:36:41.874Z,-3.40
2022-12-18T09:39:13.209Z,-2.81
2022-12-18T09:41:48.211Z,-2.74
2022-12-18T09:44:21.924Z,-2.33
2022-12-18T09:46:57.488Z,-2.63
2022-12-18T09:49:27.550Z,-2.82
2022-12-18T09:51:58.535Z,-2.43
2022-12-18T09:54:29.217Z,-2.31
2022-12-18T09:56:58.718Z,-2.10
2022-12-18T09:59:29.196Z,-1.94
2022-12-18T10:02:02.095Z,-2.14
2022-12-18T10:04:32.005Z,-1.85
2022-12-18T10:07:08.751Z,-2.07
2022-12-18T10:09:41.158Z,-2.08
2022-12-18T10:12:12.487Z,-1.99
2022-12-18T10:14:46.906Z,-1.70
2022-12-18T10:17:23.888Z,-2.77
2022-12-18T10:19:55.427Z,-3.14
2022-12-18T10:22:43.223Z,-2.45
2022-12-18T10:25:20.562Z,-2.33
2022-12-18T10:27:49.975Z,-2.68
2022-12-18T10:30:22.633Z,-2.11
2022-12-18T10:32:55.199Z,-1.98
2022-12-18T10:35:29.757Z,-2.70
2022-12-18T10:38:26.914Z,-2.91
2022-12-18T10:40:58.433Z,-3.24
2022-12-18T10:43:29.464Z,-3.52
2022-12-18T10:46:15.539Z,-3.31
2022-12-18T10:48:53.152Z,-3.94
2022-12-18T10:51:27.255Z,-4.06
2022-12-18T10:54:01.495Z,-3.65
2022-12-18T10:56:33.033Z,-3.49
2022-12-18T10:59:03.690Z,-2.93
2022-12-18T11:01:48.760Z,-2.46
2022-12-18T11:04:23.696Z,-2.27
2022-12-18T11:06:57.599Z,-2.21
2022-12-18T11:09:27.946Z,-1.87
2022-12-18T11:11:58.210Z,-1.90
2022-12-18T11:14:28.529Z,-2.53
2022-12-18T11:17:24.320Z,-2.92
2022-12-18T11:19:50.779Z,-2.75
2022-12-18T11:22:23.998Z,-2.33
2022-12-18T11:25:30.105Z,-1.93
2022-12-18T11:27:51.375Z,-1.78
2022-12-18T11:30:25.701Z,-2.62
2022-12-18T11:32:55.388Z,-2.08
2022-12-18T11:35:36.039Z,-1.79
2022-12-18T11:38:08.337Z,-2.17
2022-12-18T11:40:41.499Z,-2.96
2022-12-18T11:43:13.643Z,-2.93
2022-12-18T11:45:44.975Z,-3.03
2022-12-18T11:48:18.176Z,-2.81
2022-12-18T11:50:53.568Z,-2.84
2022-12-18T11:53:23.140Z,-2.89
2022-12-18T11:56:09.455Z,-2.48
2022-12-18T11:58:47.469Z,-2.18
2022-12-18T12:01:22.134Z,-2.04
2022-12-18T12:04:00.343Z,-1.96
2022-12-18T12:06:35.607Z,-1.59
2022-12-18T12:09:08.755Z,-1.37
2022-12-18T12:11:43.542Z,-1.13
2022-12-18T12:14:20.917Z,-0.95
2022-12-18T12:16:52.980Z,-1.21
2022-12-18T12:19:30.856Z,-1.76
2022-12-18T12:22:13.238Z,-1.32
2022-12-18T12:24:50.711Z,-1.11
2022-12-18T12:27:24.197Z,-1.31
2022-12-18T12:30:00.266Z,-1.03
2022-12-18T12:32:37.224Z,-0.85
2022-12-18T12:35:15.359Z,-0.88
2022-12-18T12:37:51.044Z,-0.86
2022-12-18T12:40:50.193Z,-0.98
2022-12-18T12:43:19.521Z,-1.62
2022-12-18T12:45:50.888Z,-1.72
2022-12-18T12:48:24.532Z,-1.64
2022-12-18T12:50:54.313Z,-2.20
2022-12-18T12:53:31.489Z,-2.52
2022-12-18T12:56:01.005Z,-2.32
2022-12-18T12:58:35.319Z,-2.30
2022-12-18T13:01:15.299Z,-2.51
2022-12-18T13:03:55.629Z,-2.43
2022-12-18T13:06:32.282Z,-2.98
2022-12-18T13:09:05.109Z,-2.90
2022-12-18T13:11:59.549Z,-3.01
2022-12-18T13:14:33.840Z,-2.74
2022-12-18T13:17:18.973Z,-3.19
2022-12-18T13:19:48.474Z,-3.20
2022-12-18T13:22:24.956Z,-3.10
2022-12-18T13:24:57.066Z,-3.47
2022-12-18T13:28:06.631Z,-3.35
2022-12-18T13:30:57.245Z,-3.16
2022-12-18T13:34:09.442Z,-3.67
2022-12-18T13:36:36.241Z,-3.53
2022-12-18T13:39:37.273Z,-3.52
2022-12-18T13:42:49.350Z,-3.08
2022-12-18T13:45:42.964Z,-3.17
2022-12-18T13:48:23.485Z,-3.45
2022-12-18T13:50:56.080Z,-3.21
2022-12-18T13:53:27.802Z,-3.39
2022-12-18T13:55:57.285Z,-3.43
2022-12-18T13:58:26.751Z,-3.30
2022-12-18T14:01:00.370Z,-3.06
2022-12-18T14:03:31.347Z,-2.63
2022-12-18T14:06:02.759Z,-2.55
2022-12-18T14:08:36.793Z,-2.42
2022-12-18T14:11:07.810Z,-2.68
2022-12-18T14:13:40.673Z,-2.77
2022-12-18T14:16:16.502Z,-2.88
2022-12-18T14:18:48.656Z,-3.12
2022-12-18T14:21:23.378Z,-3.19
2022-12-18T14:23:52.892Z,-3.38
2022-12-18T14:26:25.131Z,-3.64
2022-12-18T14:28:54.890Z,-3.57
2022-12-18T14:31:28.027Z,-3.42
2022-12-18T14:33:57.584Z,-3.31
2022-12-18T14:36:27.854Z,-3.39
2022-12-18T14:38:57.651Z,-3.38
2022-12-18T14:41:27.443Z,-3.34
2022-12-18T14:43:57.747Z,-3.47
2022-12-18T14:46:36.589Z,-3.52
2022-12-18T14:49:07.497Z,-3.51
2022-12-18T14:51:36.999Z,-3.75
2022-12-18T14:54:08.939Z,-3.51
2022-12-18T14:56:39.132Z,-3.46
2022-12-18T14:59:09.644Z,-3.54
2022-12-18T15:01:42.802Z,-3.39
2022-12-18T15:04:27.466Z,-3.28
2022-12-18T15:07:07.567Z,-3.51
2022-12-18T15:09:37.396Z,-3.55
2022-12-18T15:12:07.377Z,-3.61
2022-12-18T15:14:38.600Z,-3.70
2022-12-18T15:17:20.054Z,-3.39
2022-12-18T15:19:49.998Z,-3.20
2022-12-18T15:22:24.443Z,-2.89
2022-12-18T15:24:53.993Z,-2.61
2022-12-18T15:27:28.617Z,-2.50
2022-12-18T15:30:22.387Z,-2.53
2022-12-18T15:32:55.560Z,-2.44
2022-12-18T15:35:25.910Z,-2.27
2022-12-18T15:37:55.590Z,-2.43
2022-12-18T15:40:25.767Z,-2.16
2022-12-18T15:43:09.146Z,-1.99
2022-12-18T15:45:38.652Z,-2.34
2022-12-18T15:48:18.926Z,-2.05
2022-12-18T15:50:48.382Z,-1.97
2022-12-18T15:53:17.844Z,-1.92
2022-12-18T15:56:01.256Z,-1.96
2022-12-18T15:58:30.962Z,-2.13
2022-12-18T16:01:00.503Z,-2.14
2022-12-18T16:03:32.669Z,-2.23
2022-12-18T16:06:04.075Z,-2.29
2022-12-18T16:08:33.789Z,-2.17
2022-12-18T16:11:03.432Z,-2.17
2022-12-18T16:13:32.882Z,-2.33
2022-12-18T16:16:02.389Z,-2.24
2022-12-18T16:18:34.472Z,-2.26
2022-12-18T16:21:03.953Z,-2.54
2022-12-18T16:23:33.376Z,-2.35
2022-12-18T16:26:02.841Z,-2.24
2022-12-18T16:28:32.307Z,-2.22
2022-12-18T16:31:01.860Z,-2.07
2022-12-18T16:33:33.934Z,-1.99
2022-12-18T16:36:03.395Z,-2.07
2022-12-18T16:38:32.867Z,-2.18
2022-12-18T16:41:30.034Z,-2.01
2022-12-18T16:43:59.482Z,-1.91
2022-12-18T16:46:29.111Z,-2.04
2022-12-18T16:49:01.894Z,-1.96
2022-12-18T16:51:31.403Z,-1.81
2022-12-18T16:54:02.984Z,-1.82
2022-12-18T16:56:35.960Z,-1.62
2022-12-18T16:59:06.187Z,-1.93
2022-12-18T17:01:35.748Z,-2.13
2022-12-18T17:04:08.718Z,-1.89
2022-12-18T17:06:39.082Z,-1.79
2022-12-18T17:09:09.669Z,-2.01
2022-12-18T17:11:39.273Z,-1.99
2022-12-18T17:14:12.841Z,-2.08
2022-12-18T17:16:42.304Z,-2.01
2022-12-18T17:19:17.254Z,-2.08
2022-12-18T17:21:47.055Z,-2.28
2022-12-18T17:24:16.511Z,-2.67
2022-12-18T17:26:47.028Z,-2.36
2022-12-18T17:29:20.200Z,-2.37
2022-12-18T17:31:50.902Z,-2.33
2022-12-18T17:34:23.385Z,-2.29
2022-12-18T17:36:52.856Z,-2.18
2022-12-18T17:39:22.783Z,-2.25
2022-12-18T17:41:52.468Z,-2.37
2022-12-18T17:44:21.964Z,-2.36
2022-12-18T17:46:51.480Z,-2.56
2022-12-18T17:49:23.708Z,-2.75
2022-12-18T17:51:53.867Z,-2.72
2022-12-18T17:54:23.390Z,-2.80
2022-12-18T17:56:52.849Z,-2.76
2022-12-18T17:59:22.650Z,-2.89
2022-12-18T18:01:52.347Z,-2.79
2022-12-18T18:04:24.605Z,-2.98
2022-12-18T18:06:54.156Z,-2.73
2022-12-18T18:09:23.665Z,-2.66
2022-12-18T18:12:05.820Z,-2.66
2022-12-18T18:14:35.408Z,-2.47
2022-12-18T18:17:05.306Z,-2.27
2022-12-18T18:19:37.474Z,-2.48
2022-12-18T18:22:09.069Z,-2.25
2022-12-18T18:24:38.706Z,-2.38
2022-12-18T18:27:08.200Z,-2.50
2022-12-18T18:29:37.717Z,-2.26
2022-12-18T18:32:07.936Z,-2.10
2022-12-18T18:34:45.908Z,-1.93
2022-12-18T18:37:15.398Z,-2.14
2022-12-18T18:39:45.067Z,-2.14
2022-12-18T18:42:14.532Z,-2.14
2022-12-18T18:44:48.809Z,-2.10
2022-12-18T18:47:18.588Z,-2.13
2022-12-18T18:49:50.706Z,-2.24
2022-12-18T18:52:20.207Z,-2.03
2022-12-18T18:55:11.525Z,-1.86
2022-12-18T18:57:39.731Z,-2.05
2022-12-18T19:00:12.531Z,-1.98
2022-12-18T19:02:42.090Z,-1.83
2022-12-18T19:05:14.370Z,-1.96
2022-12-18T19:07:44.065Z,-2.08
2022-12-18T19:10:13.616Z,-2.08
2022-12-18T19:12:55.596Z,-2.01
2022-12-18T19:15:25.051Z,-2.10
2022-12-18T19:17:54.897Z,-2.17
2022-12-18T19:20:27.164Z,-2.35
2022-12-18T19:22:58.526Z,-2.12
2022-12-18T19:25:40.663Z,-1.92
2022-12-18T19:28:21.214Z,-1.66
2022-12-18T19:30:55.383Z,-1.60
2022-12-18T19:33:45.043Z,-1.61
2022-12-18T19:36:21.942Z,-1.56
2022-12-18T19:38:51.621Z,-1.81
2022-12-18T19:41:21.528Z,-2.13
2022-12-18T19:43:51.274Z,-2.01
2022-12-18T19:46:21.837Z,-1.94
2022-12-18T19:48:51.541Z,-2.12
2022-12-18T19:51:24.944Z,-1.88
2022-12-18T19:53:58.515Z,-1.61
2022-12-18T19:56:29.814Z,-1.53
2022-12-18T19:58:59.322Z,-1.31
2022-12-18T20:01:29.149Z,-1.62
2022-12-18T20:03:59.730Z,-1.57
2022-12-18T20:06:33.961Z,-1.37
2022-12-18T20:09:04.223Z,-1.08
2022-12-18T20:11:33.865Z,-0.89
2022-12-18T20:14:08.306Z,-0.73
2022-12-18T20:16:38.291Z,-0.68
2022-12-18T20:19:07.980Z,-0.73
2022-12-18T20:21:40.548Z,-0.63
2022-12-18T20:24:11.211Z,-0.66
2022-12-18T20:26:40.856Z,-0.49
2022-12-18T20:29:10.320Z,-0.54
2022-12-18T20:31:39.833Z,-0.44
2022-12-18T20:34:09.336Z,-0.53
2022-12-18T20:36:41.588Z,-0.54
2022-12-18T20:39:13.412Z,-0.38
2022-12-18T20:41:44.284Z,-0.28
2022-12-18T20:44:21.970Z,-0.32
2022-12-18T20:46:54.897Z,-0.38
2022-12-18T20:49:24.435Z,-0.28
2022-12-18T20:51:57.239Z,-0.28
2022-12-18T20:54:27.731Z,-0.46
2022-12-18T20:56:57.318Z,-0.82
2022-12-18T20:59:26.966Z,-1.07
2022-12-18T21:01:56.617Z,-1.07
2022-12-18T21:04:26.270Z,-0.60
2022-12-18T21:07:02.740Z,-0.70
2022-12-18T21:09:38.171Z,-0.99
2022-12-18T21:12:21.416Z,-1.33
2022-12-18T21:14:50.883Z,-1.50
2022-12-18T21:17:20.337Z,-1.34
2022-12-18T21:19:49.782Z,-1.19
2022-12-18T21:22:22.199Z,-1.19
2022-12-18T21:24:51.671Z,-0.95
2022-12-18T21:27:21.152Z,-0.95
2022-12-18T21:29:50.627Z,-0.67
2022-12-18T21:32:22.165Z,-0.75
2022-12-18T21:34:54.138Z,-1.26
2022-12-18T21:37:26.161Z,-1.40
2022-12-18T21:39:55.612Z,-1.62
2022-12-18T21:42:37.716Z,-1.55
2022-12-18T21:45:07.805Z,-1.53
2022-12-18T21:47:37.253Z,-1.30
2022-12-18T21:50:10.043Z,-1.13
2022-12-18T21:52:42.100Z,-0.87
2022-12-18T21:55:12.020Z,-0.84
2022-12-18T21:57:41.650Z,-0.64
2022-12-18T22:00:18.718Z,-0.59
2022-12-18T22:03:12.675Z,-1.02
2022-12-18T22:05:38.662Z,-0.88
2022-12-18T22:08:10.749Z,-0.85
2022-12-18T22:10:40.564Z,-0.78
2022-12-18T22:13:10.680Z,-0.68
2022-12-18T22:15:40.139Z,-0.51
2022-12-18T22:18:09.734Z,-0.63
2022-12-18T22:20:39.162Z,-0.99
2022-12-18T22:23:11.268Z,-1.18
2022-12-18T22:25:40.745Z,-1.23
2022-12-18T22:28:22.692Z,-1.14
2022-12-18T22:30:54.923Z,-1.30
2022-12-18T22:33:29.447Z,-1.18
2022-12-18T22:35:58.920Z,-1.01
2022-12-18T22:38:30.993Z,-0.95
2022-12-18T22:41:00.497Z,-0.86
2022-12-18T22:43:30.054Z,-1.04
2022-12-18T22:45:59.517Z,-0.86
2022-12-18T22:48:29.216Z,-0.72
2022-12-18T22:50:59.526Z,-0.57
2022-12-18T22:53:31.842Z,-0.73
2022-12-18T22:56:03.667Z,-0.87
2022-12-18T22:58:33.143Z,-0.82
2022-12-18T23:01:02.587Z,-0.68
2022-12-18T23:03:32.106Z,-0.52
2022-12-18T23:06:08.413Z,-0.55
2022-12-18T23:08:40.471Z,-0.46
2022-12-18T23:11:10.038Z,-0.37
2022-12-18T23:13:39.613Z,-0.47
2022-12-18T23:16:09.982Z,-0.30
2022-12-18T23:18:39.589Z,-0.48
2022-12-18T23:21:09.364Z,-0.56
2022-12-18T23:23:42.377Z,-0.57
2022-12-18T23:26:12.981Z,-0.48
2022-12-18T23:28:42.611Z,-0.57
2022-12-18T23:31:15.119Z,-0.68
2022-12-18T23:33:46.086Z,-0.63
2022-12-18T23:36:15.893Z,-0.48
2022-12-18T23:38:51.137Z,-0.37
2022-12-18T23:41:21.452Z,-0.37
2022-12-18T23:43:51.265Z,-0.62
2022-12-18T23:46:21.700Z,-0.49
2022-12-18T23:48:51.482Z,-0.57
2022-12-18T23:51:23.346Z,-0.40
2022-12-18T23:53:55.555Z,-0.27
2022-12-18T23:56:25.196Z,-0.16
2022-12-18T23:58:54.771Z,0.06
